Hauptseite
METAR-TAF:

METAR-TAF

Flughäfen :

Flughafen Den Helder

Den Helder, Niederlande

Breite: 52-55N, Länge: 004-47E, Höhe: 0 m

Beobachtung

Neuester Wetterbericht von vor 28 Minuten, um 10:27 UTC
Wind 14 kt aus Südost, variierte zwischen Ost und Süd/Südost
Temperatur 6°C
Luftfeuchtigkeit 87%
Luftdruck 1001 hPa
Sichtweite 10 km oder mehr
keine Wolken unter 1500 m und keine Kumulonimbus oder Gewitterwolken

METAR: EHKD 141027Z AUTO 12012KT 090V150 9999 FEW091 OVC100 06/04 Q1001 BLU 14014KT CAVOK

Zeit: 11:55 (10:55 UTC)

Prognose

Neuester Wetterbericht von vor 1 Stunde und 27 Minuten, um 09:28 UTC
Gültige Prognose vom 14 um 10 UTC bis 14 um 22 UTC
Wind 8 kt aus Ost/Südost
Sichtweite 10 km oder mehr
keine Wolken unter 1500 m und keine Kumulonimbus oder Gewitterwolken
Übergehend zu
vom 14 um 15 UTC bis 14 um 18 UTC
Wind 11 kt aus Ost

TAF: EHKD 140928Z 1410/1422 12008KT CAVOK BECMG 1415/1418 09011KT

Wetterbeobachtungen und Prognosen von mehr als 4000 Flughäfen (METAR und TAF Bericht).

Die verfügbaren Stationen werden durch gelbe und rote Markierungen auf der Karte dargestellt.

Führen Sie die Maus auf sie, um den Namen der Station zu sehen.

Darauf klicken, um die Beobachtung von Wetterbeobachtungen und Prognosen zu sehen.

Um die Karte zu ändern : klicken Sie auf den grünen Tasten mit einem schwarzen Kreuz Zum Vergrößern, auf den grünen Button mit einem Gedankenstrich zu verkleinern, oder auf die grünen Pfeile für benachbarte Karten.


METAR-TAF: